sensor_id;sensor_type;location;lat;lon;timestamp;P1;durP1;ratioP1;P2;durP2;ratioP2
58615;SDS011;44385;51.992;4.206;2022-08-14T00:10:12;4.28;;;3.88;;
58615;SDS011;44385;51.992;4.206;2022-08-14T00:13:00;4.97;;;4.00;;
58615;SDS011;44385;51.992;4.206;2022-08-14T00:19:30;4.13;;;3.70;;
58615;SDS011;44385;51.992;4.206;2022-08-14T00:25:43;6.65;;;3.70;;
58615;SDS011;44385;51.992;4.206;2022-08-14T00:52:33;6.00;;;3.97;;
58615;SDS011;44385;51.992;4.206;2022-08-14T00:55:53;4.53;;;3.95;;
58615;SDS011;44385;51.992;4.206;2022-08-14T00:59:00;4.38;;;3.97;;
58615;SDS011;44385;51.992;4.206;2022-08-14T01:02:07;9.88;;;4.18;;
58615;SDS011;44385;51.992;4.206;2022-08-14T01:05:02;5.35;;;3.72;;
58615;SDS011;44385;51.992;4.206;2022-08-14T01:11:22;4.13;;;3.72;;
58615;SDS011;44385;51.992;4.206;2022-08-14T01:14:07;4.25;;;3.80;;
58615;SDS011;44385;51.992;4.206;2022-08-14T01:17:11;7.85;;;3.50;;
58615;SDS011;44385;51.992;4.206;2022-08-14T01:20:22;5.68;;;3.90;;
58615;SDS011;44385;51.992;4.206;2022-08-14T01:26:59;7.43;;;3.88;;
58615;SDS011;44385;51.992;4.206;2022-08-14T01:34:25;4.32;;;3.85;;
58615;SDS011;44385;51.992;4.206;2022-08-14T01:36:01;4.72;;;4.32;;
58615;SDS011;44385;51.992;4.206;2022-08-14T01:39:39;4.85;;;4.35;;
58615;SDS011;44385;51.992;4.206;2022-08-14T01:48:29;6.43;;;4.40;;
58615;SDS011;44385;51.992;4.206;2022-08-14T01:50:57;5.95;;;5.13;;
58615;SDS011;44385;51.992;4.206;2022-08-14T01:53:25;4.95;;;4.55;;
58615;SDS011;44385;51.992;4.206;2022-08-14T01:55:52;8.73;;;5.38;;
58615;SDS011;44385;51.992;4.206;2022-08-14T01:58:21;8.52;;;5.43;;
58615;SDS011;44385;51.992;4.206;2022-08-14T02:00:49;7.60;;;5.82;;
58615;SDS011;44385;51.992;4.206;2022-08-14T02:03:18;5.75;;;5.13;;
58615;SDS011;44385;51.992;4.206;2022-08-14T02:05:46;5.65;;;5.15;;
58615;SDS011;44385;51.992;4.206;2022-08-14T02:08:12;5.82;;;5.32;;
58615;SDS011;44385;51.992;4.206;2022-08-14T02:10:39;6.80;;;4.80;;
58615;SDS011;44385;51.992;4.206;2022-08-14T02:13:05;6.63;;;5.63;;
58615;SDS011;44385;51.992;4.206;2022-08-14T02:15:32;6.72;;;6.00;;
58615;SDS011;44385;51.992;4.206;2022-08-14T02:17:59;6.32;;;5.70;;
58615;SDS011;44385;51.992;4.206;2022-08-14T02:20:28;5.63;;;5.13;;
58615;SDS011;44385;51.992;4.206;2022-08-14T02:22:59;6.05;;;5.43;;
58615;SDS011;44385;51.992;4.206;2022-08-14T02:25:26;11.70;;;6.23;;
58615;SDS011;44385;51.992;4.206;2022-08-14T02:27:52;6.00;;;5.50;;
58615;SDS011;44385;51.992;4.206;2022-08-14T02:30:20;6.57;;;5.78;;
58615;SDS011;44385;51.992;4.206;2022-08-14T02:32:46;6.03;;;5.57;;
58615;SDS011;44385;51.992;4.206;2022-08-14T02:35:14;7.10;;;6.40;;
58615;SDS011;44385;51.992;4.206;2022-08-14T02:37:42;7.20;;;6.13;;
58615;SDS011;44385;51.992;4.206;2022-08-14T02:40:10;6.75;;;6.05;;
58615;SDS011;44385;51.992;4.206;2022-08-14T02:42:38;9.70;;;5.60;;
58615;SDS011;44385;51.992;4.206;2022-08-14T02:45:05;6.15;;;5.65;;
58615;SDS011;44385;51.992;4.206;2022-08-14T02:47:31;9.13;;;6.60;;
58615;SDS011;44385;51.992;4.206;2022-08-14T02:49:58;9.10;;;6.22;;
58615;SDS011;44385;51.992;4.206;2022-08-14T02:52:25;7.30;;;6.60;;
58615;SDS011;44385;51.992;4.206;2022-08-14T02:54:51;9.45;;;6.90;;
58615;SDS011;44385;51.992;4.206;2022-08-14T02:57:19;7.43;;;6.72;;
58615;SDS011;44385;51.992;4.206;2022-08-14T02:59:49;7.13;;;6.40;;
58615;SDS011;44385;51.992;4.206;2022-08-14T03:02:16;7.53;;;6.60;;
58615;SDS011;44385;51.992;4.206;2022-08-14T03:04:42;8.35;;;7.18;;
58615;SDS011;44385;51.992;4.206;2022-08-14T03:07:08;7.35;;;6.47;;
58615;SDS011;44385;51.992;4.206;2022-08-14T03:09:35;6.93;;;6.32;;
58615;SDS011;44385;51.992;4.206;2022-08-14T03:12:03;7.60;;;6.90;;
58615;SDS011;44385;51.992;4.206;2022-08-14T03:14:31;7.50;;;6.88;;
58615;SDS011;44385;51.992;4.206;2022-08-14T03:17:01;7.72;;;6.95;;
58615;SDS011;44385;51.992;4.206;2022-08-14T03:19:28;10.25;;;7.85;;
58615;SDS011;44385;51.992;4.206;2022-08-14T03:21:54;7.28;;;6.68;;
58615;SDS011;44385;51.992;4.206;2022-08-14T03:24:20;8.02;;;7.22;;
58615;SDS011;44385;51.992;4.206;2022-08-14T03:26:47;8.30;;;7.03;;
58615;SDS011;44385;51.992;4.206;2022-08-14T03:29:20;6.97;;;6.35;;
58615;SDS011;44385;51.992;4.206;2022-08-14T03:31:48;8.23;;;6.75;;
58615;SDS011;44385;51.992;4.206;2022-08-14T03:34:15;7.78;;;7.18;;
58615;SDS011;44385;51.992;4.206;2022-08-14T03:36:41;7.32;;;6.63;;
58615;SDS011;44385;51.992;4.206;2022-08-14T03:39:08;8.48;;;6.68;;
58615;SDS011;44385;51.992;4.206;2022-08-14T03:41:35;8.00;;;7.38;;
58615;SDS011;44385;51.992;4.206;2022-08-14T03:44:02;7.50;;;6.90;;
58615;SDS011;44385;51.992;4.206;2022-08-14T03:46:30;9.18;;;7.60;;
58615;SDS011;44385;51.992;4.206;2022-08-14T03:48:58;8.88;;;7.60;;
58615;SDS011;44385;51.992;4.206;2022-08-14T03:51:29;7.68;;;6.90;;
58615;SDS011;44385;51.992;4.206;2022-08-14T03:53:56;9.18;;;7.07;;
58615;SDS011;44385;51.992;4.206;2022-08-14T03:56:23;8.38;;;7.57;;
58615;SDS011;44385;51.992;4.206;2022-08-14T03:58:51;8.68;;;7.88;;
58615;SDS011;44385;51.992;4.206;2022-08-14T04:01:19;8.63;;;7.57;;
58615;SDS011;44385;51.992;4.206;2022-08-14T04:03:47;8.60;;;7.80;;
58615;SDS011;44385;51.992;4.206;2022-08-14T04:06:15;8.05;;;7.32;;
58615;SDS011;44385;51.992;4.206;2022-08-14T04:08:44;8.63;;;7.80;;
58615;SDS011;44385;51.992;4.206;2022-08-14T04:11:11;9.35;;;8.20;;
58615;SDS011;44385;51.992;4.206;2022-08-14T04:13:39;7.97;;;7.20;;
58615;SDS011;44385;51.992;4.206;2022-08-14T04:16:07;9.50;;;7.88;;
58615;SDS011;44385;51.992;4.206;2022-08-14T04:18:36;9.17;;;8.33;;
58615;SDS011;44385;51.992;4.206;2022-08-14T04:21:03;9.27;;;7.90;;
58615;SDS011;44385;51.992;4.206;2022-08-14T04:23:31;9.10;;;8.10;;
58615;SDS011;44385;51.992;4.206;2022-08-14T04:26:00;11.00;;;7.90;;
58615;SDS011;44385;51.992;4.206;2022-08-14T04:28:29;10.52;;;8.95;;
58615;SDS011;44385;51.992;4.206;2022-08-14T04:30:55;10.02;;;8.55;;
58615;SDS011;44385;51.992;4.206;2022-08-14T04:33:22;9.93;;;8.90;;
58615;SDS011;44385;51.992;4.206;2022-08-14T04:35:49;11.05;;;9.13;;
58615;SDS011;44385;51.992;4.206;2022-08-14T04:38:19;9.75;;;8.65;;
58615;SDS011;44385;51.992;4.206;2022-08-14T04:41:04;14.60;;;8.40;;
58615;SDS011;44385;51.992;4.206;2022-08-14T04:43:48;10.38;;;9.20;;
58615;SDS011;44385;51.992;4.206;2022-08-14T04:46:15;9.35;;;7.82;;
58615;SDS011;44385;51.992;4.206;2022-08-14T04:48:41;9.73;;;8.82;;
58615;SDS011;44385;51.992;4.206;2022-08-14T04:51:08;9.32;;;8.25;;
58615;SDS011;44385;51.992;4.206;2022-08-14T04:53:35;10.77;;;9.77;;
58615;SDS011;44385;51.992;4.206;2022-08-14T04:56:03;11.35;;;8.88;;
58615;SDS011;44385;51.992;4.206;2022-08-14T04:58:32;11.00;;;8.88;;
58615;SDS011;44385;51.992;4.206;2022-08-14T05:00:59;11.73;;;8.70;;
58615;SDS011;44385;51.992;4.206;2022-08-14T05:03:27;11.15;;;10.13;;
58615;SDS011;44385;51.992;4.206;2022-08-14T05:05:58;9.68;;;8.77;;
58615;SDS011;44385;51.992;4.206;2022-08-14T05:08:24;11.70;;;9.68;;
58615;SDS011;44385;51.992;4.206;2022-08-14T05:10:51;9.45;;;8.65;;
58615;SDS011;44385;51.992;4.206;2022-08-14T05:13:18;10.00;;;9.00;;
58615;SDS011;44385;51.992;4.206;2022-08-14T05:15:46;11.32;;;8.82;;
58615;SDS011;44385;51.992;4.206;2022-08-14T05:18:14;10.45;;;9.43;;
58615;SDS011;44385;51.992;4.206;2022-08-14T05:20:42;10.57;;;9.57;;
58615;SDS011;44385;51.992;4.206;2022-08-14T05:23:10;10.38;;;9.40;;
58615;SDS011;44385;51.992;4.206;2022-08-14T05:25:37;11.05;;;9.88;;
58615;SDS011;44385;51.992;4.206;2022-08-14T05:28:07;10.70;;;9.82;;
58615;SDS011;44385;51.992;4.206;2022-08-14T05:30:34;9.43;;;8.55;;
58615;SDS011;44385;51.992;4.206;2022-08-14T05:33:02;13.35;;;8.75;;
58615;SDS011;44385;51.992;4.206;2022-08-14T05:35:29;12.25;;;9.82;;
58615;SDS011;44385;51.992;4.206;2022-08-14T05:37:56;12.48;;;9.68;;
58615;SDS011;44385;51.992;4.206;2022-08-14T05:40:23;11.32;;;10.25;;
58615;SDS011;44385;51.992;4.206;2022-08-14T05:42:49;10.13;;;9.20;;
58615;SDS011;44385;51.992;4.206;2022-08-14T05:45:15;11.35;;;9.52;;
58615;SDS011;44385;51.992;4.206;2022-08-14T05:47:43;12.45;;;9.30;;
58615;SDS011;44385;51.992;4.206;2022-08-14T05:50:11;9.77;;;8.75;;
58615;SDS011;44385;51.992;4.206;2022-08-14T05:52:38;12.05;;;10.02;;
58615;SDS011;44385;51.992;4.206;2022-08-14T05:55:05;12.15;;;10.60;;
58615;SDS011;44385;51.992;4.206;2022-08-14T05:57:32;12.02;;;9.88;;
58615;SDS011;44385;51.992;4.206;2022-08-14T05:59:58;12.10;;;9.68;;
58615;SDS011;44385;51.992;4.206;2022-08-14T06:02:24;10.98;;;9.88;;
58615;SDS011;44385;51.992;4.206;2022-08-14T06:04:51;9.93;;;8.93;;
58615;SDS011;44385;51.992;4.206;2022-08-14T06:07:18;11.30;;;10.25;;
58615;SDS011;44385;51.992;4.206;2022-08-14T06:09:45;14.63;;;10.25;;
58615;SDS011;44385;51.992;4.206;2022-08-14T06:12:11;11.07;;;9.65;;
58615;SDS011;44385;51.992;4.206;2022-08-14T06:14:38;10.30;;;9.27;;
58615;SDS011;44385;51.992;4.206;2022-08-14T06:17:05;10.07;;;9.20;;
58615;SDS011;44385;51.992;4.206;2022-08-14T06:19:32;11.00;;;9.93;;
58615;SDS011;44385;51.992;4.206;2022-08-14T06:21:58;11.75;;;10.57;;
58615;SDS011;44385;51.992;4.206;2022-08-14T06:24:26;12.40;;;10.75;;
58615;SDS011;44385;51.992;4.206;2022-08-14T06:26:53;16.30;;;10.15;;
58615;SDS011;44385;51.992;4.206;2022-08-14T06:29:19;11.38;;;10.27;;
58615;SDS011;44385;51.992;4.206;2022-08-14T06:31:45;11.45;;;10.45;;
58615;SDS011;44385;51.992;4.206;2022-08-14T06:34:12;12.45;;;11.15;;
58615;SDS011;44385;51.992;4.206;2022-08-14T06:36:39;12.25;;;11.05;;
58615;SDS011;44385;51.992;4.206;2022-08-14T06:39:05;13.25;;;11.90;;
58615;SDS011;44385;51.992;4.206;2022-08-14T06:41:33;12.13;;;10.90;;
58615;SDS011;44385;51.992;4.206;2022-08-14T06:44:00;11.20;;;10.18;;
58615;SDS011;44385;51.992;4.206;2022-08-14T06:46:27;12.02;;;10.75;;
58615;SDS011;44385;51.992;4.206;2022-08-14T06:48:55;13.15;;;11.85;;
58615;SDS011;44385;51.992;4.206;2022-08-14T06:51:21;13.50;;;12.10;;
58615;SDS011;44385;51.992;4.206;2022-08-14T06:53:47;12.10;;;10.82;;
58615;SDS011;44385;51.992;4.206;2022-08-14T06:56:14;13.23;;;11.82;;
58615;SDS011;44385;51.992;4.206;2022-08-14T06:58:41;12.50;;;11.30;;
58615;SDS011;44385;51.992;4.206;2022-08-14T07:01:08;15.90;;;12.05;;
58615;SDS011;44385;51.992;4.206;2022-08-14T07:03:52;13.27;;;12.07;;
58615;SDS011;44385;51.992;4.206;2022-08-14T07:06:35;13.15;;;12.05;;
58615;SDS011;44385;51.992;4.206;2022-08-14T07:09:02;11.57;;;10.60;;
58615;SDS011;44385;51.992;4.206;2022-08-14T07:11:29;13.85;;;12.35;;
58615;SDS011;44385;51.992;4.206;2022-08-14T07:13:57;12.18;;;11.07;;
58615;SDS011;44385;51.992;4.206;2022-08-14T07:16:23;12.65;;;11.45;;
58615;SDS011;44385;51.992;4.206;2022-08-14T07:18:50;14.95;;;10.55;;
58615;SDS011;44385;51.992;4.206;2022-08-14T07:21:16;13.73;;;12.38;;
58615;SDS011;44385;51.992;4.206;2022-08-14T07:23:42;13.25;;;11.93;;
58615;SDS011;44385;51.992;4.206;2022-08-14T07:26:09;13.30;;;11.98;;
58615;SDS011;44385;51.992;4.206;2022-08-14T07:28:36;12.50;;;11.27;;
58615;SDS011;44385;51.992;4.206;2022-08-14T07:31:05;11.77;;;10.68;;
58615;SDS011;44385;51.992;4.206;2022-08-14T07:33:34;12.38;;;11.07;;
58615;SDS011;44385;51.992;4.206;2022-08-14T07:36:04;13.93;;;11.98;;
58615;SDS011;44385;51.992;4.206;2022-08-14T07:38:30;17.42;;;11.02;;
58615;SDS011;44385;51.992;4.206;2022-08-14T07:40:57;14.60;;;11.75;;
58615;SDS011;44385;51.992;4.206;2022-08-14T07:43:24;12.50;;;11.30;;
58615;SDS011;44385;51.992;4.206;2022-08-14T07:45:50;11.70;;;10.63;;
58615;SDS011;44385;51.992;4.206;2022-08-14T07:48:18;13.38;;;10.70;;
58615;SDS011;44385;51.992;4.206;2022-08-14T07:50:44;10.75;;;9.38;;
58615;SDS011;44385;51.992;4.206;2022-08-14T07:53:11;11.23;;;10.13;;
58615;SDS011;44385;51.992;4.206;2022-08-14T07:55:38;12.07;;;10.63;;
58615;SDS011;44385;51.992;4.206;2022-08-14T07:58:04;12.95;;;10.82;;
58615;SDS011;44385;51.992;4.206;2022-08-14T08:00:31;11.95;;;10.82;;
58615;SDS011;44385;51.992;4.206;2022-08-14T08:02:57;10.93;;;9.98;;
58615;SDS011;44385;51.992;4.206;2022-08-14T08:05:25;12.38;;;10.68;;
58615;SDS011;44385;51.992;4.206;2022-08-14T08:07:52;12.18;;;10.93;;
58615;SDS011;44385;51.992;4.206;2022-08-14T08:10:20;11.05;;;10.05;;
58615;SDS011;44385;51.992;4.206;2022-08-14T08:13:01;11.75;;;9.98;;
58615;SDS011;44385;51.992;4.206;2022-08-14T08:15:32;11.80;;;10.63;;
58615;SDS011;44385;51.992;4.206;2022-08-14T08:18:03;10.52;;;9.50;;
58615;SDS011;44385;51.992;4.206;2022-08-14T08:20:33;11.65;;;9.57;;
58615;SDS011;44385;51.992;4.206;2022-08-14T08:22:59;11.43;;;10.52;;
58615;SDS011;44385;51.992;4.206;2022-08-14T08:25:28;10.02;;;9.13;;
58615;SDS011;44385;51.992;4.206;2022-08-14T08:27:55;10.05;;;8.75;;
58615;SDS011;44385;51.992;4.206;2022-08-14T08:30:22;10.80;;;8.88;;
58615;SDS011;44385;51.992;4.206;2022-08-14T08:32:50;9.00;;;8.15;;
58615;SDS011;44385;51.992;4.206;2022-08-14T08:35:17;11.68;;;8.23;;
58615;SDS011;44385;51.992;4.206;2022-08-14T08:37:46;9.55;;;8.63;;
58615;SDS011;44385;51.992;4.206;2022-08-14T08:40:20;10.60;;;9.50;;
58615;SDS011;44385;51.992;4.206;2022-08-14T08:42:47;9.02;;;8.13;;
58615;SDS011;44385;51.992;4.206;2022-08-14T08:45:14;11.10;;;8.80;;
58615;SDS011;44385;51.992;4.206;2022-08-14T08:47:40;10.38;;;8.60;;
58615;SDS011;44385;51.992;4.206;2022-08-14T08:50:20;10.70;;;8.45;;
58615;SDS011;44385;51.992;4.206;2022-08-14T08:52:52;10.18;;;9.10;;
58615;SDS011;44385;51.992;4.206;2022-08-14T08:55:25;9.70;;;8.75;;
58615;SDS011;44385;51.992;4.206;2022-08-14T08:57:55;10.90;;;9.45;;
58615;SDS011;44385;51.992;4.206;2022-08-14T09:00:21;8.77;;;7.70;;
58615;SDS011;44385;51.992;4.206;2022-08-14T09:02:52;9.15;;;8.20;;
58615;SDS011;44385;51.992;4.206;2022-08-14T09:05:21;8.57;;;7.75;;
58615;SDS011;44385;51.992;4.206;2022-08-14T09:07:48;7.90;;;7.20;;
58615;SDS011;44385;51.992;4.206;2022-08-14T09:10:15;9.77;;;7.10;;
58615;SDS011;44385;51.992;4.206;2022-08-14T09:12:42;11.38;;;6.85;;
58615;SDS011;44385;51.992;4.206;2022-08-14T09:15:09;6.65;;;6.15;;
58615;SDS011;44385;51.992;4.206;2022-08-14T09:17:35;7.78;;;7.07;;
58615;SDS011;44385;51.992;4.206;2022-08-14T09:20:02;7.90;;;7.15;;
58615;SDS011;44385;51.992;4.206;2022-08-14T09:22:29;9.88;;;7.35;;
58615;SDS011;44385;51.992;4.206;2022-08-14T09:24:55;6.35;;;5.85;;
58615;SDS011;44385;51.992;4.206;2022-08-14T09:27:23;9.70;;;7.22;;
58615;SDS011;44385;51.992;4.206;2022-08-14T09:29:49;7.50;;;6.65;;
58615;SDS011;44385;51.992;4.206;2022-08-14T09:32:19;6.90;;;5.63;;
58615;SDS011;44385;51.992;4.206;2022-08-14T09:34:49;8.55;;;6.22;;
58615;SDS011;44385;51.992;4.206;2022-08-14T09:37:22;5.20;;;4.60;;
58615;SDS011;44385;51.992;4.206;2022-08-14T09:39:55;6.40;;;5.38;;
58615;SDS011;44385;51.992;4.206;2022-08-14T09:42:33;4.65;;;4.25;;
58615;SDS011;44385;51.992;4.206;2022-08-14T09:45:08;4.80;;;3.97;;
58615;SDS011;44385;51.992;4.206;2022-08-14T09:47:41;6.40;;;4.32;;
58615;SDS011;44385;51.992;4.206;2022-08-14T09:50:15;5.28;;;4.78;;
58615;SDS011;44385;51.992;4.206;2022-08-14T09:52:45;4.93;;;4.45;;
58615;SDS011;44385;51.992;4.206;2022-08-14T09:55:15;4.55;;;4.10;;
58615;SDS011;44385;51.992;4.206;2022-08-14T09:57:43;4.78;;;4.07;;
58615;SDS011;44385;51.992;4.206;2022-08-14T10:00:10;5.75;;;3.70;;
58615;SDS011;44385;51.992;4.206;2022-08-14T10:05:05;4.45;;;4.05;;
58615;SDS011;44385;51.992;4.206;2022-08-14T10:07:33;5.63;;;4.05;;
58615;SDS011;44385;51.992;4.206;2022-08-14T10:09:59;4.97;;;3.83;;
58615;SDS011;44385;51.992;4.206;2022-08-14T10:12:39;8.75;;;3.90;;
58615;SDS011;44385;51.992;4.206;2022-08-14T10:15:14;3.78;;;3.47;;
58615;SDS011;44385;51.992;4.206;2022-08-14T10:17:40;3.90;;;3.42;;
58615;SDS011;44385;51.992;4.206;2022-08-14T10:20:08;5.20;;;3.35;;
58615;SDS011;44385;51.992;4.206;2022-08-14T10:22:36;5.38;;;3.30;;
58615;SDS011;44385;51.992;4.206;2022-08-14T10:25:08;5.15;;;3.42;;
58615;SDS011;44385;51.992;4.206;2022-08-14T10:27:36;3.88;;;3.58;;
58615;SDS011;44385;51.992;4.206;2022-08-14T10:30:02;3.50;;;3.17;;
58615;SDS011;44385;51.992;4.206;2022-08-14T10:32:43;3.50;;;3.20;;
58615;SDS011;44385;51.992;4.206;2022-08-14T10:35:10;7.22;;;3.50;;
58615;SDS011;44385;51.992;4.206;2022-08-14T10:37:37;3.70;;;3.40;;
58615;SDS011;44385;51.992;4.206;2022-08-14T10:40:04;3.88;;;3.30;;
58615;SDS011;44385;51.992;4.206;2022-08-14T10:44:57;3.70;;;3.40;;
58615;SDS011;44385;51.992;4.206;2022-08-14T10:47:32;3.58;;;3.28;;
58615;SDS011;44385;51.992;4.206;2022-08-14T10:50:00;3.65;;;3.35;;
58615;SDS011;44385;51.992;4.206;2022-08-14T10:52:28;3.85;;;3.40;;
58615;SDS011;44385;51.992;4.206;2022-08-14T10:55:03;3.67;;;3.40;;
58615;SDS011;44385;51.992;4.206;2022-08-14T10:57:32;3.50;;;3.20;;
58615;SDS011;44385;51.992;4.206;2022-08-14T11:00:00;4.45;;;3.38;;
58615;SDS011;44385;51.992;4.206;2022-08-14T11:02:29;4.05;;;3.22;;
58615;SDS011;44385;51.992;4.206;2022-08-14T11:05:05;4.78;;;4.20;;
58615;SDS011;44385;51.992;4.206;2022-08-14T11:07:32;5.40;;;3.35;;
58615;SDS011;44385;51.992;4.206;2022-08-14T11:09:59;3.63;;;3.33;;
58615;SDS011;44385;51.992;4.206;2022-08-14T11:12:27;5.28;;;2.95;;
58615;SDS011;44385;51.992;4.206;2022-08-14T11:15:03;6.35;;;4.00;;
58615;SDS011;44385;51.992;4.206;2022-08-14T11:17:31;3.97;;;3.63;;
58615;SDS011;44385;51.992;4.206;2022-08-14T11:20:01;3.67;;;3.17;;
58615;SDS011;44385;51.992;4.206;2022-08-14T11:22:29;3.90;;;3.45;;
58615;SDS011;44385;51.992;4.206;2022-08-14T11:24:57;6.00;;;3.38;;
58615;SDS011;44385;51.992;4.206;2022-08-14T11:27:26;6.13;;;3.90;;
58615;SDS011;44385;51.992;4.206;2022-08-14T11:29:55;3.75;;;3.38;;
58615;SDS011;44385;51.992;4.206;2022-08-14T11:32:22;5.57;;;3.33;;
58615;SDS011;44385;51.992;4.206;2022-08-14T11:34:49;4.30;;;4.00;;
58615;SDS011;44385;51.992;4.206;2022-08-14T11:37:16;4.40;;;3.83;;
58615;SDS011;44385;51.992;4.206;2022-08-14T11:39:44;5.22;;;4.18;;
58615;SDS011;44385;51.992;4.206;2022-08-14T11:42:17;5.57;;;3.78;;
58615;SDS011;44385;51.992;4.206;2022-08-14T11:44:44;4.40;;;4.05;;
58615;SDS011;44385;51.992;4.206;2022-08-14T11:47:11;4.68;;;4.05;;
58615;SDS011;44385;51.992;4.206;2022-08-14T11:49:43;5.65;;;3.88;;
58615;SDS011;44385;51.992;4.206;2022-08-14T11:52:09;4.97;;;4.20;;
58615;SDS011;44385;51.992;4.206;2022-08-14T11:54:36;5.00;;;4.00;;
58615;SDS011;44385;51.992;4.206;2022-08-14T11:57:04;4.22;;;3.83;;
58615;SDS011;44385;51.992;4.206;2022-08-14T11:59:30;4.80;;;4.40;;
58615;SDS011;44385;51.992;4.206;2022-08-14T12:02:06;7.60;;;3.92;;
58615;SDS011;44385;51.992;4.206;2022-08-14T12:04:33;9.60;;;4.47;;
58615;SDS011;44385;51.992;4.206;2022-08-14T12:07:00;4.50;;;4.10;;
58615;SDS011;44385;51.992;4.206;2022-08-14T12:09:32;4.22;;;3.83;;
58615;SDS011;44385;51.992;4.206;2022-08-14T12:11:59;4.20;;;3.50;;
58615;SDS011;44385;51.992;4.206;2022-08-14T12:14:27;4.63;;;4.00;;
58615;SDS011;44385;51.992;4.206;2022-08-14T12:17:03;4.38;;;3.60;;
58615;SDS011;44385;51.992;4.206;2022-08-14T12:19:41;4.13;;;3.72;;
58615;SDS011;44385;51.992;4.206;2022-08-14T12:22:08;4.57;;;3.33;;
58615;SDS011;44385;51.992;4.206;2022-08-14T12:24:34;4.65;;;4.25;;
58615;SDS011;44385;51.992;4.206;2022-08-14T12:27:01;6.20;;;4.07;;
58615;SDS011;44385;51.992;4.206;2022-08-14T12:29:29;4.20;;;3.80;;
58615;SDS011;44385;51.992;4.206;2022-08-14T12:31:59;3.85;;;3.55;;
58615;SDS011;44385;51.992;4.206;2022-08-14T12:34:29;3.97;;;3.67;;
58615;SDS011;44385;51.992;4.206;2022-08-14T12:37:06;5.25;;;4.03;;
58615;SDS011;44385;51.992;4.206;2022-08-14T12:39:33;4.23;;;3.93;;
58615;SDS011;44385;51.992;4.206;2022-08-14T12:41:59;3.97;;;3.67;;
58615;SDS011;44385;51.992;4.206;2022-08-14T12:44:32;3.92;;;3.65;;
58615;SDS011;44385;51.992;4.206;2022-08-14T12:47:02;4.22;;;3.83;;
58615;SDS011;44385;51.992;4.206;2022-08-14T12:49:29;5.05;;;4.32;;
58615;SDS011;44385;51.992;4.206;2022-08-14T12:51:57;4.88;;;3.97;;
58615;SDS011;44385;51.992;4.206;2022-08-14T12:54:26;4.82;;;4.45;;
58615;SDS011;44385;51.992;4.206;2022-08-14T12:57:01;7.00;;;4.18;;
58615;SDS011;44385;51.992;4.206;2022-08-14T12:59:29;4.95;;;3.97;;
58615;SDS011;44385;51.992;4.206;2022-08-14T13:01:58;8.18;;;3.97;;
58615;SDS011;44385;51.992;4.206;2022-08-14T13:04:26;5.28;;;4.00;;
58615;SDS011;44385;51.992;4.206;2022-08-14T13:06:58;4.07;;;3.78;;
58615;SDS011;44385;51.992;4.206;2022-08-14T13:09:28;5.00;;;4.45;;
58615;SDS011;44385;51.992;4.206;2022-08-14T13:11:55;4.72;;;4.32;;
58615;SDS011;44385;51.992;4.206;2022-08-14T13:14:22;4.50;;;4.20;;
58615;SDS011;44385;51.992;4.206;2022-08-14T13:16:50;5.43;;;4.35;;
58615;SDS011;44385;51.992;4.206;2022-08-14T13:19:19;4.35;;;3.97;;
58615;SDS011;44385;51.992;4.206;2022-08-14T13:24:13;4.93;;;4.55;;
58615;SDS011;44385;51.992;4.206;2022-08-14T13:26:40;5.03;;;4.47;;
58615;SDS011;44385;51.992;4.206;2022-08-14T13:29:08;4.13;;;3.83;;
58615;SDS011;44385;51.992;4.206;2022-08-14T13:31:37;4.75;;;4.35;;
58615;SDS011;44385;51.992;4.206;2022-08-14T13:34:05;4.90;;;4.43;;
58615;SDS011;44385;51.992;4.206;2022-08-14T13:36:32;6.93;;;4.40;;
58615;SDS011;44385;51.992;4.206;2022-08-14T13:38:59;5.03;;;4.43;;
58615;SDS011;44385;51.992;4.206;2022-08-14T13:41:26;4.05;;;3.75;;
58615;SDS011;44385;51.992;4.206;2022-08-14T13:43:52;4.38;;;4.07;;
58615;SDS011;44385;51.992;4.206;2022-08-14T13:46:20;4.30;;;4.00;;
58615;SDS011;44385;51.992;4.206;2022-08-14T13:48:47;4.78;;;3.80;;
58615;SDS011;44385;51.992;4.206;2022-08-14T13:51:16;4.88;;;4.10;;
58615;SDS011;44385;51.992;4.206;2022-08-14T13:53:45;5.10;;;4.30;;
58615;SDS011;44385;51.992;4.206;2022-08-14T13:56:12;4.00;;;3.70;;
58615;SDS011;44385;51.992;4.206;2022-08-14T13:58:39;4.05;;;3.85;;
58615;SDS011;44385;51.992;4.206;2022-08-14T14:01:07;4.30;;;3.90;;
58615;SDS011;44385;51.992;4.206;2022-08-14T14:03:34;4.47;;;4.18;;
58615;SDS011;44385;51.992;4.206;2022-08-14T14:06:02;4.23;;;3.87;;
58615;SDS011;44385;51.992;4.206;2022-08-14T14:08:28;4.18;;;3.88;;
58615;SDS011;44385;51.992;4.206;2022-08-14T14:11:02;5.22;;;4.47;;
58615;SDS011;44385;51.992;4.206;2022-08-14T14:13:29;5.15;;;4.65;;
58615;SDS011;44385;51.992;4.206;2022-08-14T14:15:56;5.40;;;4.40;;
58615;SDS011;44385;51.992;4.206;2022-08-14T14:18:24;5.40;;;4.30;;
58615;SDS011;44385;51.992;4.206;2022-08-14T14:20:52;4.85;;;4.32;;
58615;SDS011;44385;51.992;4.206;2022-08-14T14:23:18;5.47;;;4.47;;
58615;SDS011;44385;51.992;4.206;2022-08-14T14:25:45;4.72;;;4.43;;
58615;SDS011;44385;51.992;4.206;2022-08-14T14:28:14;4.32;;;3.92;;
58615;SDS011;44385;51.992;4.206;2022-08-14T14:30:43;6.85;;;4.75;;
58615;SDS011;44385;51.992;4.206;2022-08-14T14:33:11;5.72;;;4.20;;
58615;SDS011;44385;51.992;4.206;2022-08-14T14:35:37;4.53;;;4.13;;
58615;SDS011;44385;51.992;4.206;2022-08-14T14:38:08;4.93;;;4.40;;
58615;SDS011;44385;51.992;4.206;2022-08-14T14:40:38;4.97;;;4.35;;
58615;SDS011;44385;51.992;4.206;2022-08-14T14:43:05;5.00;;;4.60;;
58615;SDS011;44385;51.992;4.206;2022-08-14T14:45:36;5.78;;;4.57;;
58615;SDS011;44385;51.992;4.206;2022-08-14T14:48:03;4.88;;;4.50;;
58615;SDS011;44385;51.992;4.206;2022-08-14T14:50:33;4.97;;;4.50;;
58615;SDS011;44385;51.992;4.206;2022-08-14T14:53:02;4.97;;;4.57;;
58615;SDS011;44385;51.992;4.206;2022-08-14T14:55:29;5.25;;;4.78;;
58615;SDS011;44385;51.992;4.206;2022-08-14T14:57:56;5.65;;;5.15;;
58615;SDS011;44385;51.992;4.206;2022-08-14T15:00:24;5.32;;;4.90;;
58615;SDS011;44385;51.992;4.206;2022-08-14T15:02:52;5.78;;;5.13;;
58615;SDS011;44385;51.992;4.206;2022-08-14T15:05:19;5.65;;;5.25;;
58615;SDS011;44385;51.992;4.206;2022-08-14T15:10:14;5.03;;;4.63;;
58615;SDS011;44385;51.992;4.206;2022-08-14T15:12:40;6.73;;;5.20;;
58615;SDS011;44385;51.992;4.206;2022-08-14T15:15:08;6.93;;;5.45;;
58615;SDS011;44385;51.992;4.206;2022-08-14T15:17:34;5.65;;;5.13;;
58615;SDS011;44385;51.992;4.206;2022-08-14T15:20:02;5.25;;;4.85;;
58615;SDS011;44385;51.992;4.206;2022-08-14T15:22:30;4.97;;;4.57;;
58615;SDS011;44385;51.992;4.206;2022-08-14T15:24:57;5.50;;;5.07;;
58615;SDS011;44385;51.992;4.206;2022-08-14T15:27:23;5.97;;;5.40;;
58615;SDS011;44385;51.992;4.206;2022-08-14T15:29:50;5.68;;;5.18;;
58615;SDS011;44385;51.992;4.206;2022-08-14T15:32:16;5.03;;;4.53;;
58615;SDS011;44385;51.992;4.206;2022-08-14T15:34:42;5.22;;;4.88;;
58615;SDS011;44385;51.992;4.206;2022-08-14T15:37:11;5.35;;;4.85;;
58615;SDS011;44385;51.992;4.206;2022-08-14T15:39:37;5.45;;;5.05;;
58615;SDS011;44385;51.992;4.206;2022-08-14T15:42:04;5.15;;;4.65;;
58615;SDS011;44385;51.992;4.206;2022-08-14T15:44:31;5.47;;;4.97;;
58615;SDS011;44385;51.992;4.206;2022-08-14T15:46:58;5.97;;;4.85;;
58615;SDS011;44385;51.992;4.206;2022-08-14T15:49:25;5.63;;;5.13;;
58615;SDS011;44385;51.992;4.206;2022-08-14T15:51:52;7.88;;;6.10;;
58615;SDS011;44385;51.992;4.206;2022-08-14T15:54:21;6.38;;;5.88;;
58615;SDS011;44385;51.992;4.206;2022-08-14T15:59:14;7.38;;;5.63;;
58615;SDS011;44385;51.992;4.206;2022-08-14T16:01:40;7.57;;;5.90;;
58615;SDS011;44385;51.992;4.206;2022-08-14T16:04:05;6.30;;;5.70;;
58615;SDS011;44385;51.992;4.206;2022-08-14T16:06:32;6.68;;;5.45;;